Kendall, FL

6:47 AM EST on December 03, 2016 (GMT -0500)
Kendall-Tamiami Executive | | Change Station

Elev 10 ft 25.64 °N, 80.43 °W | Updated 25 minutes ago

Partly Cloudy
Partly Cloudy
70 °F
Feels Like 70 °F
N
6
Wind Variable Wind from NNW

Today
High -- | Low -- °F
--% Chance of Precip.
Yesterday
High -- | Low -- °F
Precip. -- in
Pressure 30.08 in
Visibility 10.0 miles
Clouds Few 2700 ft
Dew Point 67 °F
Humidity 90%
Rainfall 0.00 in
Snow Depth Not available.
6:52 AM 5:30 PM
Waxing Crescent, 14% visible
SPECI KTMB 031122Z AUTO 34005KT 10SM FEW027 21/19 A3008 RMK AO2 T02110194
Pressure 30.08 in
Visibility 10.0 miles
Clouds Few 2700 ft
Dew Point 67 °F
Humidity 90%
Rainfall 0.00 in
Snow Depth Not available.
6:52 AM 5:30 PM
Waxing Crescent, 14% visible
SPECI KTMB 031122Z AUTO 34005KT 10SM FEW027 21/19 A3008 RMK AO2 T02110194

10-Day Weather Forecast

Almanac

Astronomy

Dec. 03, 2016 Rise Set
Actual Time
Civil Twilight
Nautical Twilight
Astronomical Twilight
Moon
Length of Visible Light
Length of Day
Tomorrow will be .
, % of the Moon is Illuminated

Today's Extremes

State Highs State Lows

Community

WunderPhotos

Upload Photos

1,955,434 photos uploaded!

WunderBlog® & News

Nearby

Air Quality

  Air Quality AQ Index Pollutant
Not available.

Snow Depth

Station Depth Elevation

Earthquake Activity

City Distance Mag. Time & Date
Minimum magnitude displayed is 2.5.

Coastal Water Temperatures

Place Temperature

Stations

Nearby Weather Stations

Station Location Temp. Windchill Dew Point Humidity Wind Precip. Elev Updated Type
                   

Watches & Warnings

There are currently no watches in effect.